createdAt,value
2018-11-14T00:00:18.610Z,7.91
2018-11-14T00:02:47.654Z,7.99
2018-11-14T00:05:16.429Z,7.95
2018-11-14T00:07:45.016Z,8.02
2018-11-14T00:10:13.626Z,8.08
2018-11-14T00:12:42.129Z,8.03
2018-11-14T00:15:13.289Z,8.19
2018-11-14T00:17:42.713Z,8.23
2018-11-14T00:20:11.931Z,8.11
2018-11-14T00:22:41.653Z,8.04
2018-11-14T00:25:11.133Z,7.92
2018-11-14T00:27:39.699Z,7.82
2018-11-14T00:30:12.776Z,7.91
2018-11-14T00:32:47.405Z,7.99
2018-11-14T00:35:16.030Z,8.00
2018-11-14T00:37:45.123Z,8.01
2018-11-14T00:40:14.737Z,7.95
2018-11-14T00:42:44.041Z,8.13
2018-11-14T00:45:14.330Z,8.09
2018-11-14T00:47:43.959Z,8.19
2018-11-14T00:50:13.466Z,8.06
2018-11-14T00:52:42.496Z,8.13
2018-11-14T00:55:16.163Z,8.01
2018-11-14T00:57:45.854Z,7.98
2018-11-14T01:00:17.821Z,7.92
2018-11-14T01:02:46.541Z,7.90
2018-11-14T01:05:16.011Z,7.92
2018-11-14T01:07:44.622Z,7.96
2018-11-14T01:10:15.206Z,8.06
2018-11-14T01:12:44.217Z,8.01
2018-11-14T01:15:15.105Z,8.10
2018-11-14T01:17:43.725Z,8.17
2018-11-14T01:20:14.119Z,8.14
2018-11-14T01:22:43.265Z,8.12
2018-11-14T01:25:13.010Z,8.19
2018-11-14T01:27:41.606Z,8.25
2018-11-14T01:30:14.558Z,8.17
2018-11-14T01:32:44.668Z,8.26
2018-11-14T01:35:13.325Z,8.34
2018-11-14T01:37:41.837Z,8.32
2018-11-14T01:40:17.456Z,8.19
2018-11-14T01:42:47.610Z,8.17
2018-11-14T01:45:16.174Z,8.18
2018-11-14T01:47:44.860Z,8.00
2018-11-14T01:50:13.439Z,8.18
2018-11-14T01:52:41.976Z,8.31
2018-11-14T01:55:12.585Z,8.22
2018-11-14T01:57:41.189Z,8.33
2018-11-14T02:00:13.050Z,8.15
2018-11-14T02:02:41.755Z,8.10
2018-11-14T02:05:10.806Z,8.13
2018-11-14T02:07:39.327Z,8.18
2018-11-14T02:10:09.591Z,8.26
2018-11-14T02:12:38.780Z,8.24
2018-11-14T02:15:26.300Z,8.32
2018-11-14T02:17:54.813Z,8.27
2018-11-14T02:20:23.330Z,8.20
2018-11-14T02:22:51.890Z,8.24
2018-11-14T02:25:20.443Z,8.28
2018-11-14T02:27:48.940Z,8.24
2018-11-14T02:30:19.701Z,8.30
2018-11-14T02:32:48.225Z,8.14
2018-11-14T02:35:16.815Z,8.32
2018-11-14T02:37:45.841Z,8.18
2018-11-14T02:40:15.513Z,8.16
2018-11-14T02:42:44.070Z,8.17
2018-11-14T02:45:13.117Z,8.34
2018-11-14T02:47:41.636Z,8.24
2018-11-14T02:50:11.702Z,8.29
2018-11-14T02:52:40.270Z,8.40
2018-11-14T02:55:10.410Z,8.43
2018-11-14T02:57:38.967Z,8.50
2018-11-14T03:00:11.999Z,8.43
2018-11-14T03:02:40.569Z,8.36
2018-11-14T03:05:09.263Z,8.36
2018-11-14T03:07:38.066Z,8.25
2018-11-14T03:10:10.111Z,8.09
2018-11-14T03:12:38.832Z,8.15
2018-11-14T03:15:14.671Z,8.07
2018-11-14T03:17:43.277Z,8.18
2018-11-14T03:20:14.694Z,8.21
2018-11-14T03:22:43.413Z,8.04
2018-11-14T03:25:17.569Z,8.05
2018-11-14T03:27:46.163Z,8.07
2018-11-14T03:30:17.015Z,8.11
2018-11-14T03:32:45.932Z,8.05
2018-11-14T03:35:15.058Z,8.09
2018-11-14T03:37:44.201Z,8.17
2018-11-14T03:40:14.880Z,8.02
2018-11-14T03:42:43.441Z,8.09
2018-11-14T03:45:13.121Z,8.13
2018-11-14T03:47:42.216Z,8.18
2018-11-14T03:50:11.134Z,8.16
2018-11-14T03:52:39.753Z,8.20
2018-11-14T03:55:08.313Z,8.06
2018-11-14T03:57:36.838Z,8.09
2018-11-14T04:00:08.922Z,8.10
2018-11-14T04:02:37.494Z,8.11
2018-11-14T04:05:06.429Z,8.16
2018-11-14T04:07:34.960Z,8.15
2018-11-14T04:10:03.540Z,8.25
2018-11-14T04:12:32.114Z,8.20
2018-11-14T04:15:00.661Z,8.29
2018-11-14T04:17:29.232Z,8.31
2018-11-14T04:19:58.001Z,8.33
2018-11-14T04:22:27.253Z,8.32
2018-11-14T04:24:55.791Z,8.38
2018-11-14T04:27:24.362Z,8.39
2018-11-14T04:29:52.910Z,8.28
2018-11-14T04:32:21.650Z,8.21
2018-11-14T04:34:50.286Z,8.19
2018-11-14T04:37:18.782Z,8.20
2018-11-14T04:39:47.253Z,8.30
2018-11-14T04:42:15.750Z,8.16
2018-11-14T04:44:44.246Z,8.14
2018-11-14T04:47:12.776Z,8.12
2018-11-14T04:49:41.256Z,8.18
2018-11-14T04:52:09.741Z,8.22
2018-11-14T04:54:38.212Z,8.23
2018-11-14T04:57:06.757Z,8.25
2018-11-14T04:59:35.267Z,8.39
2018-11-14T05:02:04.366Z,8.25
2018-11-14T05:04:32.895Z,8.33
2018-11-14T05:07:01.386Z,8.43
2018-11-14T05:09:29.878Z,8.40
2018-11-14T05:11:58.373Z,8.43
2018-11-14T05:14:26.921Z,8.46
2018-11-14T05:16:55.399Z,8.38
2018-11-14T05:19:27.073Z,8.39
2018-11-14T05:21:55.571Z,8.39
2018-11-14T05:24:24.447Z,8.30
2018-11-14T05:26:52.873Z,8.41
2018-11-14T05:29:21.442Z,8.30
2018-11-14T05:31:49.966Z,8.36
2018-11-14T05:34:18.463Z,8.36
2018-11-14T05:36:46.925Z,8.27
2018-11-14T05:39:15.466Z,8.24
2018-11-14T05:41:44.242Z,8.42
2018-11-14T05:44:12.822Z,8.47
2018-11-14T05:46:41.411Z,8.52
2018-11-14T05:49:09.993Z,8.55
2018-11-14T05:51:38.566Z,8.61
2018-11-14T05:54:08.505Z,8.64
2018-11-14T05:56:38.410Z,8.68
2018-11-14T05:59:07.043Z,8.66
2018-11-14T06:01:36.595Z,8.69
2018-11-14T06:04:05.458Z,8.69
2018-11-14T06:06:33.969Z,8.68
2018-11-14T06:09:04.437Z,8.73
2018-11-14T06:11:32.940Z,8.70
2018-11-14T06:14:01.472Z,8.61
2018-11-14T06:16:30.243Z,8.49
2018-11-14T06:18:59.237Z,8.40
2018-11-14T06:21:27.966Z,8.41
2018-11-14T06:23:56.526Z,8.37
2018-11-14T06:26:25.086Z,8.38
2018-11-14T06:28:53.673Z,8.21
2018-11-14T06:31:22.258Z,8.12
2018-11-14T06:33:50.924Z,8.25
2018-11-14T06:36:19.394Z,8.27
2018-11-14T06:38:47.912Z,8.44
2018-11-14T06:41:16.865Z,8.50
2018-11-14T06:43:45.869Z,8.53
2018-11-14T06:46:14.375Z,8.48
2018-11-14T06:48:43.363Z,8.52
2018-11-14T06:51:12.194Z,8.64
2018-11-14T06:53:40.641Z,8.70
2018-11-14T06:56:10.618Z,8.74
2018-11-14T06:58:39.134Z,8.84
2018-11-14T07:01:07.711Z,8.94
2018-11-14T07:03:36.254Z,8.97
2018-11-14T07:06:05.277Z,8.95
2018-11-14T07:08:33.637Z,8.91
2018-11-14T07:11:02.277Z,8.92
2018-11-14T07:13:30.801Z,8.99
2018-11-14T07:15:59.402Z,9.00
2018-11-14T07:18:27.920Z,8.96
2018-11-14T07:20:56.514Z,9.04
2018-11-14T07:23:25.130Z,9.10
2018-11-14T07:25:56.923Z,9.02
2018-11-14T07:28:25.874Z,9.03
2018-11-14T07:30:54.459Z,9.06
2018-11-14T07:33:22.996Z,9.10
2018-11-14T07:35:51.635Z,9.22
2018-11-14T07:38:43.873Z,9.18
2018-11-14T07:41:16.754Z,9.33
2018-11-14T07:43:45.446Z,9.38
2018-11-14T07:46:14.549Z,9.19
2018-11-14T07:48:43.664Z,9.24
2018-11-14T07:51:12.418Z,9.23
2018-11-14T07:53:40.989Z,9.27
2018-11-14T07:56:09.586Z,9.32
2018-11-14T07:58:38.187Z,9.42
2018-11-14T08:01:07.170Z,9.56
2018-11-14T08:03:35.734Z,9.62
2018-11-14T08:06:04.562Z,9.88
2018-11-14T08:08:33.297Z,9.88
2018-11-14T08:11:01.849Z,9.96
2018-11-14T08:13:32.478Z,9.80
2018-11-14T08:16:02.690Z,9.60
2018-11-14T08:18:31.448Z,9.26
2018-11-14T08:21:00.894Z,9.21
2018-11-14T08:23:29.477Z,9.12
2018-11-14T08:25:58.271Z,8.78
2018-11-14T08:40:00.932Z,8.65
2018-11-14T08:42:29.508Z,8.61
2018-11-14T08:44:58.138Z,8.66
2018-11-14T08:47:26.797Z,8.49
2018-11-14T08:49:55.443Z,8.53
2018-11-14T08:52:24.000Z,8.49
2018-11-14T08:54:52.593Z,8.58
2018-11-14T08:57:21.158Z,8.63
2018-11-14T08:59:49.777Z,8.57
2018-11-14T09:02:18.470Z,8.49
2018-11-14T09:04:47.909Z,8.51
2018-11-14T09:07:16.458Z,8.74
2018-11-14T09:09:45.021Z,8.85
2018-11-14T09:12:13.600Z,8.78
2018-11-14T09:14:42.210Z,8.87
2018-11-14T09:17:10.849Z,9.06
2018-11-14T09:19:39.454Z,8.92
2018-11-14T09:22:08.084Z,8.88
2018-11-14T09:24:36.981Z,8.88
2018-11-14T09:27:05.961Z,8.89
2018-11-14T09:29:34.540Z,9.01
2018-11-14T09:32:04.016Z,9.34
2018-11-14T09:34:32.563Z,9.57
2018-11-14T09:37:01.132Z,9.34
2018-11-14T09:39:29.658Z,9.45
2018-11-14T09:41:58.219Z,9.61
2018-11-14T09:44:26.775Z,9.72
2018-11-14T09:46:55.338Z,9.96
2018-11-14T09:49:24.001Z,10.19
2018-11-14T09:51:53.008Z,10.28
2018-11-14T09:54:21.678Z,10.32
2018-11-14T09:56:50.348Z,10.05
2018-11-14T09:59:18.867Z,10.02
2018-11-14T10:01:47.439Z,9.72
2018-11-14T10:04:16.066Z,9.49
2018-11-14T10:06:44.829Z,9.42
2018-11-14T10:09:14.322Z,9.29
2018-11-14T10:11:42.889Z,9.42
2018-11-14T10:14:11.990Z,9.13
2018-11-14T10:16:40.562Z,8.99
2018-11-14T10:19:10.919Z,9.09
2018-11-14T10:21:39.945Z,9.22
2018-11-14T10:24:08.486Z,9.19
2018-11-14T10:26:37.494Z,9.50
2018-11-14T10:29:06.249Z,9.22
2018-11-14T10:31:35.201Z,9.34
2018-11-14T10:34:03.766Z,9.26
2018-11-14T10:36:32.510Z,9.40
2018-11-14T10:39:01.126Z,9.45
2018-11-14T10:41:29.915Z,9.50
2018-11-14T10:43:58.462Z,9.62
2018-11-14T10:46:26.966Z,9.79
2018-11-14T10:48:55.514Z,9.44
2018-11-14T10:51:24.074Z,9.43
2018-11-14T10:53:52.619Z,9.67
2018-11-14T10:56:21.122Z,10.04
2018-11-14T10:58:49.665Z,10.40
2018-11-14T11:01:23.516Z,9.93
2018-11-14T11:03:57.190Z,9.69
2018-11-14T11:06:35.388Z,9.65
2018-11-14T11:09:14.781Z,9.76
2018-11-14T11:11:48.962Z,10.17
2018-11-14T11:14:22.667Z,10.61
2018-11-14T11:16:56.441Z,10.77
2018-11-14T11:19:28.266Z,11.01
2018-11-14T11:21:56.818Z,11.18
2018-11-14T11:24:25.437Z,10.92
2018-11-14T11:26:54.043Z,11.23
2018-11-14T11:29:22.618Z,11.35
2018-11-14T11:31:51.412Z,11.66
2018-11-14T11:34:19.996Z,11.76
2018-11-14T11:36:48.488Z,11.94
2018-11-14T11:39:18.334Z,11.56
2018-11-14T11:41:47.422Z,11.13
2018-11-14T11:44:16.148Z,11.10
2018-11-14T11:46:44.980Z,10.70
2018-11-14T11:49:13.556Z,10.68
2018-11-14T11:51:42.053Z,11.03
2018-11-14T11:54:10.594Z,11.23
2018-11-14T11:56:39.530Z,11.56
2018-11-14T11:59:08.771Z,11.52
2018-11-14T12:01:37.302Z,11.51
2018-11-14T12:04:06.054Z,10.86
2018-11-14T12:06:34.663Z,10.46
2018-11-14T12:09:04.500Z,10.55
2018-11-14T12:11:33.018Z,10.56
2018-11-14T12:14:01.567Z,10.64
2018-11-14T12:16:30.576Z,10.88
2018-11-14T12:18:59.159Z,10.96
2018-11-14T12:21:27.736Z,11.35
2018-11-14T12:23:57.196Z,11.68
2018-11-14T12:26:26.322Z,11.44
2018-11-14T12:28:54.918Z,11.30
2018-11-14T12:31:23.483Z,11.54
2018-11-14T12:33:52.013Z,11.31
2018-11-14T12:36:20.536Z,11.52
2018-11-14T12:38:49.123Z,11.76
2018-11-14T12:41:17.585Z,12.08
2018-11-14T12:43:46.066Z,11.55
2018-11-14T12:46:14.591Z,11.46
2018-11-14T12:48:43.126Z,11.83
2018-11-14T12:51:11.659Z,12.15
2018-11-14T12:53:40.155Z,12.46
2018-11-14T12:56:08.717Z,12.34
2018-11-14T12:58:37.985Z,12.34
2018-11-14T13:01:06.570Z,12.28
2018-11-14T13:03:35.629Z,12.41
2018-11-14T13:06:04.238Z,12.84
2018-11-14T13:08:33.044Z,13.57
2018-11-14T13:11:01.574Z,14.05
2018-11-14T13:13:35.453Z,14.36
2018-11-14T13:16:04.249Z,14.15
2018-11-14T13:18:32.749Z,14.59
2018-11-14T13:21:01.945Z,15.26
2018-11-14T13:23:31.086Z,15.73
2018-11-14T13:25:59.571Z,16.32
2018-11-14T13:28:28.021Z,16.47
2018-11-14T13:30:56.757Z,16.13
2018-11-14T13:33:25.465Z,15.48
2018-11-14T13:35:54.014Z,15.51
2018-11-14T13:38:22.553Z,15.19
2018-11-14T13:40:51.091Z,15.22
2018-11-14T13:50:22.901Z,14.38
2018-11-14T13:52:51.299Z,14.35
2018-11-14T13:55:20.942Z,14.31
2018-11-14T13:57:50.632Z,14.30
2018-11-14T14:00:20.242Z,14.65
2018-11-14T14:02:49.641Z,14.40
2018-11-14T14:05:19.576Z,13.75
2018-11-14T14:07:48.067Z,13.32
2018-11-14T14:10:17.147Z,13.00
2018-11-14T14:12:47.026Z,12.91
2018-11-14T14:15:19.027Z,12.61
2018-11-14T14:17:48.202Z,12.73
2018-11-14T14:20:17.531Z,12.55
2018-11-14T14:22:46.289Z,12.61
2018-11-14T14:25:16.123Z,12.59
2018-11-14T14:27:44.652Z,12.42
2018-11-14T14:30:14.625Z,12.19
2018-11-14T14:32:43.862Z,12.30
2018-11-14T14:35:13.771Z,12.31
2018-11-14T14:37:42.349Z,12.25
2018-11-14T14:40:13.575Z,12.18
2018-11-14T14:42:42.091Z,12.06
2018-11-14T14:45:11.577Z,11.93
2018-11-14T14:47:40.063Z,11.80
2018-11-14T14:50:10.980Z,11.40
2018-11-14T14:52:40.037Z,11.04
2018-11-14T14:55:11.107Z,10.85
2018-11-14T14:57:39.671Z,10.55
2018-11-14T15:00:13.957Z,10.06
2018-11-14T15:02:42.868Z,9.75
2018-11-14T15:05:12.418Z,9.51
2018-11-14T15:07:41.282Z,9.37
2018-11-14T15:10:12.675Z,9.51
2018-11-14T15:12:41.943Z,9.48
2018-11-14T15:15:10.572Z,9.43
2018-11-14T15:17:39.124Z,9.30
2018-11-14T15:20:10.769Z,9.20
2018-11-14T15:22:39.409Z,9.02
2018-11-14T15:25:10.106Z,8.97
2018-11-14T15:27:39.386Z,8.99
2018-11-14T15:30:10.512Z,8.91
2018-11-14T15:32:39.384Z,8.88
2018-11-14T15:35:08.658Z,8.78
2018-11-14T15:37:37.382Z,8.58
2018-11-14T15:40:07.070Z,8.51
2018-11-14T15:42:36.308Z,8.32
2018-11-14T15:45:05.166Z,8.27
2018-11-14T15:47:33.672Z,8.20
2018-11-14T15:50:02.238Z,8.08
2018-11-14T15:52:30.745Z,8.11
2018-11-14T15:54:59.303Z,7.96
2018-11-14T15:57:27.875Z,7.84
2018-11-14T15:59:56.406Z,7.76
2018-11-14T16:02:24.947Z,7.62
2018-11-14T16:04:53.441Z,7.59
2018-11-14T16:07:22.002Z,7.53
2018-11-14T16:09:50.495Z,7.51
2018-11-14T16:12:19.153Z,7.45
2018-11-14T16:14:47.646Z,7.43
2018-11-14T16:17:16.193Z,7.41
2018-11-14T16:19:44.698Z,7.27
2018-11-14T16:22:13.230Z,7.09
2018-11-14T16:24:41.823Z,7.25
2018-11-14T16:27:10.349Z,7.24
2018-11-14T16:29:38.866Z,7.18
2018-11-14T16:32:07.429Z,7.09
2018-11-14T16:34:35.948Z,7.02
2018-11-14T16:37:04.559Z,7.01
2018-11-14T16:39:33.076Z,6.94
2018-11-14T16:42:01.649Z,6.82
2018-11-14T16:44:30.225Z,6.79
2018-11-14T16:46:58.712Z,6.70
2018-11-14T16:49:27.238Z,6.62
2018-11-14T16:51:55.795Z,6.58
2018-11-14T16:54:24.318Z,6.54
2018-11-14T16:56:52.878Z,6.52
2018-11-14T16:59:21.380Z,6.46
2018-11-14T17:01:50.174Z,6.38
2018-11-14T17:04:18.663Z,6.38
2018-11-14T17:06:47.203Z,6.35
2018-11-14T17:09:15.649Z,6.32
2018-11-14T17:11:44.124Z,6.36
2018-11-14T17:14:12.635Z,6.34
2018-11-14T17:16:41.149Z,6.34
2018-11-14T17:19:09.653Z,6.25
2018-11-14T17:21:38.200Z,6.25
2018-11-14T17:24:06.746Z,6.35
2018-11-14T17:26:35.242Z,6.38
2018-11-14T17:29:03.714Z,6.35
2018-11-14T17:31:32.212Z,6.50
2018-11-14T17:34:00.671Z,6.55
2018-11-14T17:36:29.207Z,6.77
2018-11-14T17:38:57.686Z,6.84
2018-11-14T17:41:26.228Z,6.93
2018-11-14T17:43:54.693Z,7.00
2018-11-14T17:46:23.234Z,7.03
2018-11-14T17:48:51.746Z,6.84
2018-11-14T17:51:20.281Z,6.88
2018-11-14T17:53:48.790Z,6.90
2018-11-14T17:56:17.329Z,6.87
2018-11-14T17:58:46.046Z,6.77
2018-11-14T18:01:14.572Z,6.81
2018-11-14T18:03:43.107Z,6.82
2018-11-14T18:06:11.801Z,6.72
2018-11-14T18:08:40.515Z,6.81
2018-11-14T18:11:09.031Z,6.95
2018-11-14T18:13:37.541Z,6.82
2018-11-14T18:16:06.594Z,6.92
2018-11-14T18:18:35.181Z,7.07
2018-11-14T18:21:03.674Z,6.67
2018-11-14T18:23:32.833Z,6.78
2018-11-14T18:26:01.359Z,6.77
2018-11-14T18:28:29.868Z,6.89
2018-11-14T18:30:58.372Z,6.93
2018-11-14T18:33:26.905Z,6.76
2018-11-14T18:35:55.405Z,6.74
2018-11-14T18:38:23.975Z,6.81
2018-11-14T18:40:52.722Z,6.80
2018-11-14T18:43:21.593Z,6.75
2018-11-14T18:45:50.143Z,6.66
2018-11-14T18:48:18.601Z,6.66
2018-11-14T18:50:47.068Z,6.63
2018-11-14T18:53:15.565Z,6.64
2018-11-14T18:55:44.086Z,6.59
2018-11-14T18:58:12.582Z,6.59
2018-11-14T19:00:41.102Z,6.67
2018-11-14T19:03:09.638Z,6.45
2018-11-14T19:05:38.105Z,6.46
2018-11-14T19:08:06.681Z,6.65
2018-11-14T19:10:35.364Z,6.78
2018-11-14T19:13:04.122Z,6.90
2018-11-14T19:15:33.885Z,6.78
2018-11-14T19:18:02.402Z,6.78
2018-11-14T19:20:32.158Z,6.67
2018-11-14T19:23:01.378Z,6.87
2018-11-14T19:25:31.158Z,7.00
2018-11-14T19:27:59.717Z,7.09
2018-11-14T19:30:29.627Z,7.16
2018-11-14T19:32:59.498Z,6.98
2018-11-14T19:35:28.106Z,7.05
2018-11-14T19:37:57.177Z,7.10
2018-11-14T19:40:28.018Z,7.23
2018-11-14T19:42:58.739Z,7.34
2018-11-14T19:45:29.481Z,7.05
2018-11-14T19:47:57.996Z,6.99
2018-11-14T19:50:26.755Z,6.87
2018-11-14T19:52:55.345Z,6.99
2018-11-14T19:55:25.095Z,7.07
2018-11-14T19:57:54.833Z,7.09
2018-11-14T20:00:25.321Z,7.21
2018-11-14T20:02:53.816Z,7.24
2018-11-14T20:05:22.771Z,7.29
2018-11-14T20:07:51.284Z,7.38
2018-11-14T20:10:21.080Z,7.47
2018-11-14T20:12:50.175Z,7.48
2018-11-14T20:15:21.941Z,7.53
2018-11-14T20:17:50.830Z,7.50
2018-11-14T20:20:22.681Z,7.52
2018-11-14T20:22:51.197Z,7.56
2018-11-14T20:25:19.708Z,7.37
2018-11-14T20:27:48.556Z,7.34
2018-11-14T20:30:21.018Z,7.40
2018-11-14T20:32:50.005Z,7.53
2018-11-14T20:35:19.577Z,7.59
2018-11-14T20:37:48.142Z,7.58
2018-11-14T20:40:17.867Z,7.57
2018-11-14T20:42:46.932Z,7.36
2018-11-14T20:45:17.505Z,7.30
2018-11-14T20:47:46.077Z,7.40
2018-11-14T20:50:16.742Z,7.23
2018-11-14T20:52:46.762Z,7.29
2018-11-14T20:55:15.651Z,7.31
2018-11-14T20:57:44.696Z,7.28
2018-11-14T21:00:20.753Z,7.45
2018-11-14T21:02:49.476Z,7.56
2018-11-14T21:05:18.022Z,7.60
2018-11-14T21:07:46.601Z,7.57
2018-11-14T21:10:16.450Z,7.54
2018-11-14T21:12:45.297Z,7.59
2018-11-14T21:15:17.377Z,7.63
2018-11-14T21:17:46.260Z,7.62
2018-11-14T21:20:14.807Z,7.60
2018-11-14T21:22:43.430Z,7.60
2018-11-14T21:25:13.503Z,7.65
2018-11-14T21:27:43.233Z,7.66
2018-11-14T21:30:13.626Z,7.66
2018-11-14T21:32:42.988Z,7.63
2018-11-14T21:35:17.631Z,7.60
2018-11-14T21:37:47.417Z,7.63
2018-11-14T21:40:15.989Z,7.67
2018-11-14T21:42:44.598Z,7.63
2018-11-14T21:45:18.513Z,7.50
2018-11-14T21:47:52.469Z,7.43
2018-11-14T21:50:22.077Z,7.39
2018-11-14T21:52:50.670Z,7.44
2018-11-14T21:55:19.240Z,7.46
2018-11-14T21:57:47.846Z,7.45
2018-11-14T22:00:19.529Z,7.50
2018-11-14T22:02:50.441Z,7.44
2018-11-14T22:05:19.010Z,7.44
2018-11-14T22:07:47.579Z,7.53
2018-11-14T22:10:17.514Z,7.52
2018-11-14T22:12:46.627Z,7.45
2018-11-14T22:15:16.275Z,7.38
2018-11-14T22:17:44.792Z,7.23
2018-11-14T22:20:14.465Z,7.19
2018-11-14T22:22:47.428Z,7.11
2018-11-14T22:25:17.303Z,7.13
2018-11-14T22:27:45.988Z,6.99
2018-11-14T22:30:21.056Z,7.00
2018-11-14T22:32:49.648Z,7.13
2018-11-14T22:35:19.693Z,7.21
2018-11-14T22:37:50.399Z,7.21
2018-11-14T22:40:21.230Z,7.16
2018-11-14T22:42:49.804Z,6.93
2018-11-14T22:45:19.736Z,6.85
2018-11-14T22:49:12.760Z,6.81
2018-11-14T22:51:41.646Z,6.72
2018-11-14T22:54:10.197Z,6.84
2018-11-14T22:56:38.731Z,6.78
2018-11-14T22:59:07.332Z,6.67
2018-11-14T23:01:40.733Z,6.70
2018-11-14T23:04:09.331Z,6.78
2018-11-14T23:06:38.097Z,6.87
2018-11-14T23:09:09.922Z,6.99
2018-11-14T23:11:38.481Z,7.02
2018-11-14T23:14:07.104Z,6.89
2018-11-14T23:16:35.753Z,6.78
2018-11-14T23:19:04.419Z,6.63
2018-11-14T23:21:32.947Z,6.56
2018-11-14T23:24:01.526Z,6.54
2018-11-14T23:26:30.613Z,6.55
2018-11-14T23:28:59.437Z,6.48
2018-11-14T23:31:27.965Z,6.61
2018-11-14T23:33:56.662Z,6.49
2018-11-14T23:36:25.197Z,6.68
2018-11-14T23:38:53.770Z,6.59
2018-11-14T23:41:22.348Z,6.58
2018-11-14T23:43:50.962Z,6.60
2018-11-14T23:46:20.019Z,6.40
2018-11-14T23:48:48.638Z,6.31
2018-11-14T23:51:17.587Z,6.35
2018-11-14T23:53:46.277Z,6.37
2018-11-14T23:56:14.834Z,6.33
2018-11-14T23:58:44.682Z,6.22
